Time;durP1;ratioP1;P1;durP2;ratioP2;P2;SDS_P1;SDS_P2;PMS_P1;PMS_P2;Temp;Humidity;BMP_temperature;BMP_pressure;BME280_temperature;BME280_humidity;BME280_pressure;Samples;Min_cycle;Max_cycle;Signal;HPM_P1;HPM_P2
2022/03/10 00:01:22;;;;;;;;;;;4.90;69.10;;;;;;4970230;28;19977;-84
2022/03/10 00:03:47;;;;;;;;;;;4.80;69.30;;;;;;4983882;28;20290;-84
2022/03/10 00:06:13;;;;;;;;;;;4.80;68.30;;;;;;4973248;28;19926;-84
2022/03/10 00:08:39;;;;;;;;;;;4.80;70.00;;;;;;4970624;28;20352;-84
2022/03/10 00:11:05;;;;;;;;;;;4.90;71.10;;;;;;4961254;28;20478;-84
2022/03/10 00:13:31;;;;;;;;;;;5.00;70.70;;;;;;4988976;28;19925;-84
2022/03/10 00:15:59;;;;;;;;;;;4.50;72.50;;;;;;4973542;28;19925;-84
2022/03/10 00:18:24;;;;;;;;;;;4.60;76.70;;;;;;4978455;28;20403;-84
2022/03/10 00:20:50;;;;;;;;;;;4.40;78.20;;;;;;4954510;28;20017;-84
2022/03/10 00:23:16;;;;;;;;;;;4.20;79.60;;;;;;4956041;28;19965;-84
2022/03/10 00:25:42;;;;;;;;;;;4.10;86.40;;;;;;4960833;28;19930;-85
2022/03/10 00:28:07;;;;;;;;;;;3.90;90.40;;;;;;4987430;28;20401;-84
2022/03/10 00:30:33;;;;;;;;;;;3.80;87.80;;;;;;4982092;28;19925;-85
2022/03/10 00:32:58;;;;;;;;;;;3.70;86.50;;;;;;4992647;28;19926;-84
2022/03/10 00:35:25;;;;;;;;;;;3.70;82.10;;;;;;4974101;28;19961;-84
2022/03/10 00:37:50;;;;;;;;;;;3.70;83.80;;;;;;4974173;28;20017;-85
2022/03/10 00:40:16;;;;;;;;;;;3.70;82.00;;;;;;4982533;28;20371;-84
2022/03/10 00:42:42;;;;;;;;;;;4.40;79.60;;;;;;4987460;28;19980;-85
2022/03/10 00:45:08;;;;;;;;;;;3.70;82.10;;;;;;4958082;28;19922;-85
2022/03/10 00:47:34;;;;;;;;;;;3.70;82.60;;;;;;4973940;28;19952;-84
2022/03/10 00:49:59;;;;;;;;;;;3.70;82.60;;;;;;4973508;28;19933;-84
2022/03/10 00:52:25;;;;;;;;;;;3.70;82.70;;;;;;4958411;28;19922;-84
2022/03/10 00:54:51;;;;;;;;;;;3.70;83.70;;;;;;4973703;28;20017;-84
2022/03/10 00:57:17;;;;;;;;;;;3.60;80.90;;;;;;4957089;28;20110;-84
2022/03/10 00:59:42;;;;;;;;;;;3.70;80.20;;;;;;4974121;28;20638;-85
2022/03/10 01:02:08;;;;;;;;;;;4.40;78.90;;;;;;4985487;28;20433;-84
2022/03/10 01:04:33;;;;;;;;;;;3.70;78.50;;;;;;4993186;28;19925;-84
2022/03/10 01:06:59;;;;;;;;;;;3.80;79.90;;;;;;4976953;28;20383;-84
2022/03/10 01:09:24;;;;;;;;;;;4.20;78.90;;;;;;4989629;28;19930;-85
2022/03/10 01:11:50;;;;;;;;;;;3.90;77.70;;;;;;4978661;28;19984;-84
2022/03/10 01:14:16;;;;;;;;;;;3.70;77.30;;;;;;4976502;28;19926;-84
2022/03/10 01:16:41;;;;;;;;;;;3.70;77.80;;;;;;4976626;28;20042;-84
2022/03/10 01:19:08;;;;;;;;;;;4.10;79.20;;;;;;4961051;28;19922;-84
2022/03/10 01:21:34;;;;;;;;;;;3.90;77.60;;;;;;4976192;28;19944;-84
2022/03/10 01:23:59;;;;;;;;;;;3.70;77.80;;;;;;4993066;28;20283;-85
2022/03/10 01:26:25;;;;;;;;;;;3.70;79.60;;;;;;4992444;28;19984;-84
2022/03/10 01:28:50;;;;;;;;;;;3.60;77.80;;;;;;4976027;28;20359;-84
2022/03/10 01:31:16;;;;;;;;;;;3.60;77.20;;;;;;4976007;28;19926;-84
2022/03/10 01:33:42;;;;;;;;;;;3.60;76.70;;;;;;4976431;28;19926;-84
2022/03/10 01:36:07;;;;;;;;;;;3.60;77.40;;;;;;4992728;28;19922;-85
2022/03/10 01:38:33;;;;;;;;;;;3.50;78.00;;;;;;4991840;28;19970;-84
2022/03/10 01:40:58;;;;;;;;;;;3.50;77.80;;;;;;4980746;28;19922;-84
2022/03/10 01:43:24;;;;;;;;;;;3.50;78.50;;;;;;4972255;28;20335;-84
2022/03/10 01:45:49;;;;;;;;;;;3.40;79.40;;;;;;4989285;28;19926;-85
2022/03/10 01:48:15;;;;;;;;;;;3.50;78.90;;;;;;4973248;28;19926;-83
2022/03/10 01:50:40;;;;;;;;;;;3.40;77.10;;;;;;4957336;28;19984;-85
2022/03/10 01:53:06;;;;;;;;;;;3.40;79.00;;;;;;4993680;28;20017;-84
2022/03/10 01:55:32;;;;;;;;;;;3.30;79.90;;;;;;4972269;28;19922;-85
2022/03/10 01:57:58;;;;;;;;;;;3.30;78.30;;;;;;4988680;28;20000;-85
2022/03/10 02:00:23;;;;;;;;;;;3.30;78.90;;;;;;4974941;28;19936;-84
2022/03/10 02:02:49;;;;;;;;;;;3.20;79.50;;;;;;4992453;28;19926;-84
2022/03/10 02:05:14;;;;;;;;;;;3.50;78.00;;;;;;4992785;28;19976;-85
2022/03/10 02:10:26;;;;;;;;;;;3.80;79.30;;;;;;4992085;28;19921;-85
2022/03/10 02:12:53;;;;;;;;;;;3.50;79.60;;;;;;4991564;28;19928;-85
2022/03/10 02:18:05;;;;;;;;;;;3.20;78.50;;;;;;4992264;28;19932;-85
2022/03/10 02:20:30;;;;;;;;;;;3.20;78.30;;;;;;4991727;28;20373;-85
2022/03/10 02:22:56;;;;;;;;;;;3.20;77.50;;;;;;4969552;28;19929;-85
2022/03/10 02:25:22;;;;;;;;;;;3.20;78.10;;;;;;4956048;28;19922;-85
2022/03/10 02:27:49;;;;;;;;;;;3.20;79.50;;;;;;4971829;28;19922;-85
2022/03/10 02:30:15;;;;;;;;;;;3.40;77.90;;;;;;4972090;28;20371;-85
2022/03/10 02:32:41;;;;;;;;;;;3.40;79.90;;;;;;4971348;28;19922;-85
2022/03/10 02:35:06;;;;;;;;;;;3.80;82.30;;;;;;4972567;28;19929;-85
2022/03/10 02:37:32;;;;;;;;;;;3.10;79.20;;;;;;4971470;28;20359;-85
2022/03/10 02:39:57;;;;;;;;;;;3.10;78.70;;;;;;4972362;28;19926;-85
2022/03/10 02:42:23;;;;;;;;;;;3.00;78.40;;;;;;4971447;28;19926;-85
2022/03/10 02:44:49;;;;;;;;;;;3.10;80.50;;;;;;4955457;28;19933;-85
2022/03/10 02:47:15;;;;;;;;;;;3.00;84.90;;;;;;4962426;28;19925;-85
2022/03/10 02:49:41;;;;;;;;;;;3.30;89.50;;;;;;4987342;28;19926;-85
2022/03/10 02:52:07;;;;;;;;;;;2.80;86.20;;;;;;4956095;28;19922;-84
2022/03/10 02:54:32;;;;;;;;;;;2.70;88.50;;;;;;4989872;28;19972;-85
2022/03/10 02:56:58;;;;;;;;;;;2.50;90.10;;;;;;4990503;28;19968;-84
2022/03/10 02:59:24;;;;;;;;;;;2.40;92.80;;;;;;4990459;28;19922;-84
2022/03/10 03:01:50;;;;;;;;;;;2.40;90.30;;;;;;4975174;28;19925;-84
2022/03/10 03:04:15;;;;;;;;;;;2.40;85.30;;;;;;4975465;28;19973;-85
2022/03/10 03:06:41;;;;;;;;;;;2.40;89.10;;;;;;4971275;28;20118;-85
2022/03/10 03:09:06;;;;;;;;;;;2.40;89.30;;;;;;4955565;28;19929;-84
2022/03/10 03:11:32;;;;;;;;;;;2.40;89.30;;;;;;4954610;28;19980;-84
2022/03/10 03:13:58;;;;;;;;;;;2.50;88.20;;;;;;4955733;28;20054;-85
2022/03/10 03:16:24;;;;;;;;;;;3.00;89.80;;;;;;4970468;28;19926;-85
2022/03/10 03:18:51;;;;;;;;;;;3.20;88.20;;;;;;4971978;28;19930;-84
2022/03/10 03:21:17;;;;;;;;;;;2.50;86.30;;;;;;4955793;28;19922;-85
2022/03/10 03:23:43;;;;;;;;;;;2.50;85.10;;;;;;4970663;28;19933;-85
2022/03/10 03:26:08;;;;;;;;;;;2.50;85.70;;;;;;4971769;28;19922;-85
2022/03/10 03:28:34;;;;;;;;;;;3.10;85.60;;;;;;4970348;28;19929;-85
2022/03/10 03:31:00;;;;;;;;;;;2.60;83.00;;;;;;4972642;28;19930;-85
2022/03/10 03:33:26;;;;;;;;;;;2.70;85.70;;;;;;4974286;28;19925;-85
2022/03/10 03:35:51;;;;;;;;;;;2.60;85.60;;;;;;4974515;28;19926;-85
2022/03/10 03:38:17;;;;;;;;;;;2.60;83.20;;;;;;4990386;28;20024;-84
2022/03/10 03:40:42;;;;;;;;;;;2.60;82.00;;;;;;4990152;28;19925;-85
2022/03/10 03:43:08;;;;;;;;;;;2.60;82.70;;;;;;4973803;28;19921;-85
2022/03/10 03:45:33;;;;;;;;;;;3.30;83.20;;;;;;4973234;28;19929;-85
2022/03/10 03:47:59;;;;;;;;;;;2.60;82.70;;;;;;4974664;28;20339;-86
2022/03/10 03:50:24;;;;;;;;;;;2.60;84.50;;;;;;4984171;28;19926;-85
2022/03/10 03:52:50;;;;;;;;;;;2.40;83.80;;;;;;4963208;28;19936;-85
2022/03/10 03:55:16;;;;;;;;;;;2.60;82.80;;;;;;4974028;28;20394;-85
2022/03/10 03:57:41;;;;;;;;;;;2.60;83.50;;;;;;4967465;28;20829;-85
2022/03/10 04:00:08;;;;;;;;;;;2.60;84.70;;;;;;4970879;28;19929;-85
2022/03/10 04:02:34;;;;;;;;;;;2.60;83.10;;;;;;4954567;28;20803;-85
2022/03/10 04:04:59;;;;;;;;;;;2.60;82.90;;;;;;4955217;28;19926;-85
2022/03/10 04:07:25;;;;;;;;;;;2.60;82.30;;;;;;4970182;28;19922;-84
2022/03/10 04:09:50;;;;;;;;;;;2.80;83.80;;;;;;4969024;28;19922;-85
2022/03/10 04:12:16;;;;;;;;;;;2.50;83.20;;;;;;4975329;28;19922;-85
2022/03/10 04:14:42;;;;;;;;;;;2.50;85.50;;;;;;4972950;28;20728;-85
2022/03/10 04:17:07;;;;;;;;;;;2.50;85.30;;;;;;4990526;28;19924;-85
2022/03/10 04:19:33;;;;;;;;;;;3.30;85.40;;;;;;4985064;28;19926;-85
2022/03/10 04:21:59;;;;;;;;;;;2.50;84.90;;;;;;4959898;28;19925;-85
2022/03/10 04:24:24;;;;;;;;;;;2.50;86.60;;;;;;4964869;28;19926;-84
2022/03/10 04:26:50;;;;;;;;;;;2.50;84.00;;;;;;4970175;28;19986;-85
2022/03/10 04:29:15;;;;;;;;;;;2.40;84.20;;;;;;4954867;28;20367;-85
2022/03/10 04:31:42;;;;;;;;;;;3.30;83.70;;;;;;4955480;28;19996;-85
2022/03/10 04:34:08;;;;;;;;;;;2.40;85.20;;;;;;4990406;28;20371;-84
2022/03/10 04:36:33;;;;;;;;;;;2.40;86.50;;;;;;4989566;28;19928;-85
2022/03/10 04:38:59;;;;;;;;;;;2.40;88.30;;;;;;4978264;28;20368;-85
2022/03/10 04:41:25;;;;;;;;;;;2.30;88.20;;;;;;4967430;28;20283;-84
2022/03/10 04:43:50;;;;;;;;;;;2.30;87.40;;;;;;4989347;28;19929;-85
2022/03/10 04:46:16;;;;;;;;;;;2.30;86.40;;;;;;4965941;28;20374;-85
2022/03/10 04:48:42;;;;;;;;;;;2.20;87.30;;;;;;4973134;28;19932;-85
2022/03/10 04:51:08;;;;;;;;;;;2.10;88.90;;;;;;4973822;28;19969;-85
2022/03/10 04:53:34;;;;;;;;;;;2.20;87.30;;;;;;4989069;28;19965;-85
2022/03/10 04:56:00;;;;;;;;;;;2.20;89.90;;;;;;4989543;28;19930;-85
2022/03/10 04:58:26;;;;;;;;;;;2.20;88.10;;;;;;4989380;28;19922;-84
2022/03/10 05:00:52;;;;;;;;;;;2.20;90.00;;;;;;4985272;28;20307;-85
2022/03/10 05:03:18;;;;;;;;;;;2.20;90.50;;;;;;4963466;28;19925;-85
2022/03/10 05:05:44;;;;;;;;;;;2.30;90.30;;;;;;4966330;28;20371;-85
2022/03/10 05:08:10;;;;;;;;;;;2.10;91.30;;;;;;4954666;28;19930;-85
2022/03/10 05:10:35;;;;;;;;;;;2.10;91.60;;;;;;4973765;28;19926;-85
2022/03/10 05:13:01;;;;;;;;;;;2.00;90.80;;;;;;4973519;28;19925;-85
2022/03/10 05:15:30;;;;;;;;;;;2.50;92.40;;;;;;4992584;28;20342;-84
2022/03/10 05:17:56;;;;;;;;;;;2.20;92.10;;;;;;4987789;28;19945;-85
2022/03/10 05:20:23;;;;;;;;;;;2.00;91.70;;;;;;4990197;28;20064;-85
2022/03/10 05:22:55;;;;;;;;;;;2.00;91.30;;;;;;4956853;28;20028;-85
2022/03/10 05:25:22;;;;;;;;;;;1.90;92.50;;;;;;4990603;28;20016;-86
2022/03/10 05:27:47;;;;;;;;;;;2.00;91.50;;;;;;4964958;28;20017;-84
2022/03/10 05:30:13;;;;;;;;;;;2.00;92.30;;;;;;4992978;28;20395;-85
2022/03/10 05:32:39;;;;;;;;;;;2.40;92.90;;;;;;4992683;28;19965;-84
2022/03/10 05:35:06;;;;;;;;;;;2.00;92.60;;;;;;4992925;28;19925;-85
2022/03/10 05:37:32;;;;;;;;;;;1.90;94.00;;;;;;4979718;28;19922;-85
2022/03/10 05:39:57;;;;;;;;;;;1.90;92.60;;;;;;4973798;28;19976;-84
2022/03/10 05:42:23;;;;;;;;;;;1.80;94.20;;;;;;4940382;28;20427;-85
2022/03/10 05:44:48;;;;;;;;;;;2.10;92.20;;;;;;4956318;28;19929;-85
2022/03/10 05:47:14;;;;;;;;;;;2.30;93.30;;;;;;4989398;28;19926;-85
2022/03/10 05:49:39;;;;;;;;;;;1.80;92.90;;;;;;4992441;28;20342;-85
2022/03/10 05:52:05;;;;;;;;;;;2.50;93.10;;;;;;4960116;28;19921;-85
2022/03/10 05:54:31;;;;;;;;;;;1.80;94.00;;;;;;4991594;28;20390;-84
2022/03/10 05:56:57;;;;;;;;;;;1.80;93.20;;;;;;4974093;28;20383;-85
2022/03/10 05:59:23;;;;;;;;;;;1.70;95.10;;;;;;4973060;28;19926;-84
2022/03/10 06:01:49;;;;;;;;;;;2.20;94.60;;;;;;4972381;28;20443;-84
2022/03/10 06:04:14;;;;;;;;;;;1.80;94.90;;;;;;4973163;28;20398;-84
2022/03/10 06:06:40;;;;;;;;;;;1.80;95.00;;;;;;4956336;28;19930;-85
2022/03/10 06:09:06;;;;;;;;;;;2.10;93.20;;;;;;4972598;28;19972;-84
2022/03/10 06:11:31;;;;;;;;;;;2.20;94.50;;;;;;4977533;28;19921;-84
2022/03/10 06:13:57;;;;;;;;;;;1.80;95.00;;;;;;4963562;28;19991;-85
2022/03/10 06:16:22;;;;;;;;;;;1.90;94.60;;;;;;4956142;28;20013;-85
2022/03/10 06:18:48;;;;;;;;;;;1.90;94.90;;;;;;4956304;28;20443;-84
2022/03/10 06:21:13;;;;;;;;;;;1.90;94.80;;;;;;4971907;28;20020;-85
2022/03/10 06:23:39;;;;;;;;;;;2.30;93.60;;;;;;4955594;28;19981;-85
2022/03/10 06:26:05;;;;;;;;;;;1.90;94.80;;;;;;4957381;28;19928;-84
2022/03/10 06:28:31;;;;;;;;;;;1.90;93.80;;;;;;4991542;28;19936;-85
2022/03/10 06:30:57;;;;;;;;;;;2.10;94.10;;;;;;4990751;28;20012;-84
2022/03/10 06:33:22;;;;;;;;;;;1.90;94.10;;;;;;4983585;28;20020;-85
2022/03/10 06:35:48;;;;;;;;;;;1.90;93.90;;;;;;4966359;28;20297;-85
2022/03/10 06:38:13;;;;;;;;;;;1.90;94.20;;;;;;4991620;28;19941;-85
2022/03/10 06:40:39;;;;;;;;;;;1.90;94.20;;;;;;4991565;28;20539;-85
2022/03/10 06:43:05;;;;;;;;;;;2.00;92.90;;;;;;4971441;28;19926;-84
2022/03/10 06:45:31;;;;;;;;;;;2.00;93.50;;;;;;4959110;28;20264;-85
2022/03/10 06:47:57;;;;;;;;;;;2.10;95.30;;;;;;4991233;28;19928;-85
2022/03/10 06:50:23;;;;;;;;;;;2.10;93.50;;;;;;4959502;28;19928;-85
2022/03/10 06:52:50;;;;;;;;;;;2.10;93.80;;;;;;4990314;28;19921;-86
2022/03/10 06:55:16;;;;;;;;;;;2.10;95.50;;;;;;4974591;28;20516;-85
2022/03/10 06:57:41;;;;;;;;;;;2.40;93.90;;;;;;4976521;28;19965;-84
2022/03/10 07:00:07;;;;;;;;;;;2.20;93.90;;;;;;4991267;28;20290;-85
2022/03/10 07:02:33;;;;;;;;;;;2.30;95.70;;;;;;4965383;28;19973;-86
2022/03/10 07:04:58;;;;;;;;;;;3.30;97.00;;;;;;4956153;28;19960;-86
2022/03/10 07:07:24;;;;;;;;;;;2.30;96.60;;;;;;4990780;28;19921;-85
2022/03/10 07:09:49;;;;;;;;;;;2.50;95.90;;;;;;4990950;28;19922;-84
2022/03/10 07:12:15;;;;;;;;;;;2.40;95.30;;;;;;4974176;28;19969;-86
2022/03/10 07:14:40;;;;;;;;;;;2.50;96.40;;;;;;4957809;28;20642;-86
2022/03/10 07:17:06;;;;;;;;;;;2.60;96.50;;;;;;4991175;28;19975;-85
2022/03/10 07:19:32;;;;;;;;;;;3.30;98.40;;;;;;4973395;28;19926;-86
2022/03/10 07:21:57;;;;;;;;;;;2.60;98.10;;;;;;4983816;28;19932;-85
2022/03/10 07:24:23;;;;;;;;;;;3.10;97.70;;;;;;4974613;28;19930;-86
2022/03/10 07:26:48;;;;;;;;;;;2.70;97.20;;;;;;4974950;28;20434;-85
2022/03/10 07:29:14;;;;;;;;;;;2.70;98.30;;;;;;4960379;28;19921;-86
2022/03/10 07:31:39;;;;;;;;;;;2.70;99.00;;;;;;4985977;28;20389;-85
2022/03/10 07:34:05;;;;;;;;;;;2.80;98.00;;;;;;4991097;28;19956;-85
2022/03/10 07:36:31;;;;;;;;;;;3.50;99.40;;;;;;4973998;28;19988;-86
2022/03/10 07:38:56;;;;;;;;;;;2.90;97.00;;;;;;4973237;28;20533;-86
2022/03/10 07:41:22;;;;;;;;;;;2.90;99.00;;;;;;4973601;28;19922;-85
2022/03/10 07:43:47;;;;;;;;;;;3.80;97.00;;;;;;4957204;28;19921;-86
2022/03/10 07:46:13;;;;;;;;;;;3.00;97.10;;;;;;4989375;28;19921;-85
2022/03/10 07:48:39;;;;;;;;;;;3.30;98.20;;;;;;4990524;28;19921;-85
2022/03/10 07:51:04;;;;;;;;;;;3.10;98.70;;;;;;4979604;28;20008;-86
2022/03/10 07:53:30;;;;;;;;;;;3.10;99.40;;;;;;4976539;28;19926;-84
2022/03/10 07:55:56;;;;;;;;;;;3.20;99.20;;;;;;4953109;28;19933;-85
2022/03/10 07:58:23;;;;;;;;;;;3.20;97.40;;;;;;4974555;28;19925;-84
2022/03/10 08:00:49;;;;;;;;;;;3.30;96.80;;;;;;4973477;28;20001;-84
2022/03/10 08:03:14;;;;;;;;;;;3.40;97.70;;;;;;4983103;28;20415;-85
2022/03/10 08:05:40;;;;;;;;;;;3.50;97.50;;;;;;4971139;28;20001;-84
2022/03/10 08:08:06;;;;;;;;;;;3.50;98.20;;;;;;4962798;28;19925;-84
2022/03/10 08:10:31;;;;;;;;;;;3.60;97.40;;;;;;4975575;28;19930;-84
2022/03/10 08:12:57;;;;;;;;;;;3.60;97.40;;;;;;4980295;28;20089;-84
2022/03/10 08:15:23;;;;;;;;;;;3.70;97.90;;;;;;4960132;28;19972;-84
2022/03/10 08:17:48;;;;;;;;;;;3.80;96.90;;;;;;4978341;28;19929;-84
2022/03/10 08:20:14;;;;;;;;;;;3.80;96.70;;;;;;4980937;28;20370;-84
2022/03/10 08:22:39;;;;;;;;;;;3.90;96.40;;;;;;4962497;28;19925;-84
2022/03/10 08:25:05;;;;;;;;;;;4.00;96.10;;;;;;4969501;28;19928;-84
2022/03/10 08:27:31;;;;;;;;;;;4.10;96.70;;;;;;4977529;28;19922;-84
2022/03/10 08:29:57;;;;;;;;;;;4.20;96.40;;;;;;4944858;28;19945;-84
2022/03/10 08:32:25;;;;;;;;;;;4.40;95.80;;;;;;4977135;28;19972;-84
2022/03/10 08:34:51;;;;;;;;;;;4.30;95.70;;;;;;4945373;28;19930;-86
2022/03/10 08:37:18;;;;;;;;;;;4.40;95.70;;;;;;4975062;28;19973;-85
2022/03/10 08:39:44;;;;;;;;;;;4.50;95.70;;;;;;4972619;28;20338;-86
2022/03/10 08:42:10;;;;;;;;;;;4.60;95.50;;;;;;4978067;28;19925;-86
2022/03/10 08:44:35;;;;;;;;;;;4.70;95.80;;;;;;4973574;28;19980;-86
2022/03/10 08:47:01;;;;;;;;;;;4.80;96.40;;;;;;4980125;28;19926;-86
2022/03/10 08:49:26;;;;;;;;;;;4.80;96.70;;;;;;4994034;28;19925;-86
2022/03/10 08:51:52;;;;;;;;;;;5.10;96.00;;;;;;4993193;28;19996;-85
2022/03/10 08:54:18;;;;;;;;;;;5.00;95.50;;;;;;4958496;28;19949;-86
2022/03/10 08:56:43;;;;;;;;;;;5.10;96.30;;;;;;4973702;28;19981;-86
2022/03/10 08:59:09;;;;;;;;;;;5.10;96.90;;;;;;4957856;28;19922;-87
2022/03/10 09:01:34;;;;;;;;;;;5.20;95.30;;;;;;4973925;28;19922;-86
2022/03/10 09:04:00;;;;;;;;;;;5.30;95.10;;;;;;4963702;28;19929;-84
2022/03/10 09:06:26;;;;;;;;;;;5.40;94.60;;;;;;4980746;28;19926;-84
2022/03/10 09:08:51;;;;;;;;;;;5.50;94.30;;;;;;4979193;28;20107;-81
2022/03/10 09:11:17;;;;;;;;;;;5.60;94.20;;;;;;4952464;28;20531;-83
2022/03/10 09:13:48;;;;;;;;;;;5.80;93.30;;;;;;4973061;28;19929;-81
2022/03/10 09:16:17;;;;;;;;;;;5.80;92.80;;;;;;4973247;28;19976;-88
2022/03/10 09:18:45;;;;;;;;;;;5.90;93.40;;;;;;4980019;28;19926;-83
2022/03/10 09:21:11;;;;;;;;;;;6.10;93.10;;;;;;4981441;28;19949;-82
2022/03/10 09:23:36;;;;;;;;;;;6.10;93.70;;;;;;4973857;28;20037;-83
2022/03/10 09:26:02;;;;;;;;;;;6.20;92.60;;;;;;4965095;28;20447;-89
2022/03/10 09:28:28;;;;;;;;;;;6.60;92.90;;;;;;4989335;28;19921;-93
2022/03/10 09:30:53;;;;;;;;;;;6.40;92.10;;;;;;4946028;28;19925;-88
2022/03/10 09:33:19;;;;;;;;;;;6.50;92.30;;;;;;4985544;28;19921;-84
2022/03/10 09:35:44;;;;;;;;;;;6.50;92.30;;;;;;4980879;28;19922;-85
2022/03/10 09:38:10;;;;;;;;;;;6.70;92.10;;;;;;4985468;28;20422;-87
2022/03/10 09:40:36;;;;;;;;;;;6.70;92.20;;;;;;4983562;28;19925;-85
2022/03/10 09:43:01;;;;;;;;;;;6.80;91.80;;;;;;4962989;28;19926;-88
2022/03/10 09:45:29;;;;;;;;;;;6.90;91.40;;;;;;4968601;28;20667;-86
2022/03/10 09:47:54;;;;;;;;;;;7.00;91.40;;;;;;4981934;28;20009;-87
2022/03/10 09:50:20;;;;;;;;;;;7.20;90.70;;;;;;4965160;28;20016;-81
2022/03/10 09:52:46;;;;;;;;;;;7.30;90.60;;;;;;4966410;28;19933;-86
2022/03/10 09:55:12;;;;;;;;;;;7.40;90.60;;;;;;4978741;28;20151;-85
2022/03/10 09:57:39;;;;;;;;;;;7.50;90.50;;;;;;4974453;28;20378;-86
2022/03/10 10:00:05;;;;;;;;;;;7.60;89.60;;;;;;4967234;28;20294;-86
2022/03/10 10:02:31;;;;;;;;;;;7.70;88.80;;;;;;4980211;28;19930;-86
2022/03/10 10:04:56;;;;;;;;;;;7.80;87.50;;;;;;4974600;28;20433;-86
2022/03/10 10:07:25;;;;;;;;;;;7.90;86.80;;;;;;4999149;28;19979;-86
2022/03/10 10:09:54;;;;;;;;;;;8.10;84.50;;;;;;4992313;28;19928;-85
2022/03/10 10:12:23;;;;;;;;;;;8.20;83.20;;;;;;4975300;28;20389;-86
2022/03/10 10:14:49;;;;;;;;;;;7.90;79.00;;;;;;4964259;28;20326;-86
2022/03/10 10:17:15;;;;;;;;;;;8.40;81.40;;;;;;4975341;28;19925;-86
2022/03/10 10:19:41;;;;;;;;;;;8.50;78.50;;;;;;4984971;28;19933;-84
2022/03/10 10:22:10;;;;;;;;;;;8.60;78.80;;;;;;4974315;28;19991;-86
2022/03/10 10:24:37;;;;;;;;;;;8.80;77.20;;;;;;4984088;28;19926;-86
2022/03/10 10:27:13;;;;;;;;;;;8.90;78.10;;;;;;4979257;28;19929;-85
2022/03/10 10:29:52;;;;;;;;;;;9.00;75.70;;;;;;4971159;28;19922;-86
2022/03/10 10:32:30;;;;;;;;;;;9.10;76.70;;;;;;4976978;28;19996;-85
2022/03/10 10:35:05;;;;;;;;;;;9.20;76.30;;;;;;4986066;28;19926;-86
2022/03/10 10:37:31;;;;;;;;;;;9.30;74.90;;;;;;4981923;28;19926;-88
2022/03/10 10:39:58;;;;;;;;;;;9.50;75.70;;;;;;4975189;28;19929;-86
2022/03/10 10:42:30;;;;;;;;;;;9.60;74.90;;;;;;4975270;28;19922;-90
2022/03/10 10:44:58;;;;;;;;;;;9.70;73.30;;;;;;4971316;28;19933;-86
2022/03/10 10:47:26;;;;;;;;;;;9.80;71.60;;;;;;4986753;28;20259;-88
2022/03/10 10:49:59;;;;;;;;;;;9.90;71.80;;;;;;4992087;28;19928;-87
2022/03/10 10:52:25;;;;;;;;;;;10.00;69.20;;;;;;4991102;28;19926;-86
2022/03/10 10:55:07;;;;;;;;;;;10.10;67.70;;;;;;4987124;28;19980;-89
2022/03/10 10:57:34;;;;;;;;;;;10.30;69.20;;;;;;4972229;28;19929;-88
2022/03/10 11:00:10;;;;;;;;;;;10.40;69.70;;;;;;4981262;28;20256;-87
2022/03/10 11:02:39;;;;;;;;;;;10.40;70.50;;;;;;4984893;28;19930;-89
2022/03/10 11:05:08;;;;;;;;;;;10.60;67.30;;;;;;4974918;28;19922;-87
2022/03/10 11:07:35;;;;;;;;;;;10.70;68.20;;;;;;4989050;28;19987;-87
2022/03/10 11:10:03;;;;;;;;;;;10.80;66.60;;;;;;4973588;28;19953;-86
2022/03/10 11:12:28;;;;;;;;;;;10.90;66.10;;;;;;4970546;28;19976;-86
2022/03/10 11:14:55;;;;;;;;;;;11.00;65.50;;;;;;4981550;28;19922;-87
2022/03/10 11:17:20;;;;;;;;;;;11.10;65.30;;;;;;4973055;28;19930;-86
2022/03/10 11:19:50;;;;;;;;;;;11.20;63.10;;;;;;4972042;28;19973;-87
2022/03/10 11:22:27;;;;;;;;;;;11.30;64.50;;;;;;4971391;28;20347;-87
2022/03/10 11:24:53;;;;;;;;;;;11.40;62.50;;;;;;4971786;28;20089;-87
2022/03/10 11:27:21;;;;;;;;;;;11.50;63.70;;;;;;4981465;28;20387;-86
2022/03/10 11:29:48;;;;;;;;;;;11.70;62.20;;;;;;4974597;28;19932;-87
2022/03/10 11:32:14;;;;;;;;;;;11.80;63.00;;;;;;4973921;28;20015;-88
2022/03/10 11:34:43;;;;;;;;;;;11.90;62.00;;;;;;4974536;28;20025;-87
2022/03/10 11:37:09;;;;;;;;;;;12.10;60.60;;;;;;4988990;28;20375;-85
2022/03/10 11:39:51;;;;;;;;;;;12.20;59.60;;;;;;4954483;28;19922;-85
2022/03/10 11:42:24;;;;;;;;;;;12.40;59.80;;;;;;4953795;28;19922;-84
2022/03/10 11:45:04;;;;;;;;;;;12.50;58.50;;;;;;4987264;28;20304;-84
2022/03/10 11:47:29;;;;;;;;;;;12.70;58.50;;;;;;4988852;28;19948;-85
2022/03/10 11:49:55;;;;;;;;;;;12.90;59.80;;;;;;4960870;28;20469;-84
2022/03/10 11:52:22;;;;;;;;;;;13.10;57.50;;;;;;4963486;28;19926;-84
2022/03/10 11:55:03;;;;;;;;;;;13.30;57.40;;;;;;4961247;28;20279;-84
2022/03/10 11:57:40;;;;;;;;;;;13.50;56.90;;;;;;4976029;28;19928;-85
2022/03/10 12:00:06;;;;;;;;;;;13.80;58.60;;;;;;4985720;28;19932;-84
2022/03/10 12:02:37;;;;;;;;;;;14.10;58.90;;;;;;4958228;28;20024;-84
2022/03/10 12:05:03;;;;;;;;;;;14.20;58.00;;;;;;4958255;28;19932;-83
2022/03/10 12:07:29;;;;;;;;;;;14.40;59.20;;;;;;4970074;28;19926;-84
2022/03/10 12:10:05;;;;;;;;;;;14.60;57.80;;;;;;4972296;28;19925;-86
2022/03/10 12:12:35;;;;;;;;;;;14.80;56.10;;;;;;4982757;28;19925;-89
2022/03/10 12:15:19;;;;;;;;;;;15.00;58.40;;;;;;4980738;28;19933;-84
2022/03/10 12:17:45;;;;;;;;;;;15.10;56.00;;;;;;4987552;28;20278;-85
2022/03/10 12:20:12;;;;;;;;;;;15.30;57.40;;;;;;4971208;28;19925;-84
2022/03/10 12:22:37;;;;;;;;;;;15.50;59.00;;;;;;4969084;28;19925;-85
2022/03/10 12:25:16;;;;;;;;;;;15.70;58.10;;;;;;4962073;28;19921;-84
2022/03/10 12:27:52;;;;;;;;;;;15.70;56.40;;;;;;4993872;28;20343;-85
2022/03/10 12:30:22;;;;;;;;;;;15.90;56.80;;;;;;4977496;28;19933;-84
2022/03/10 12:32:50;;;;;;;;;;;16.10;56.60;;;;;;4994383;28;20385;-85
2022/03/10 12:35:17;;;;;;;;;;;16.30;55.50;;;;;;4977017;28;20375;-85
2022/03/10 12:37:47;;;;;;;;;;;16.40;55.40;;;;;;4969188;28;19933;-84
2022/03/10 12:40:19;;;;;;;;;;;16.40;53.30;;;;;;4971446;28;19922;-84
2022/03/10 12:42:46;;;;;;;;;;;16.60;56.00;;;;;;4973592;28;19922;-84
2022/03/10 12:45:12;;;;;;;;;;;16.70;54.30;;;;;;4973791;28;19988;-85
2022/03/10 12:47:40;;;;;;;;;;;16.90;56.10;;;;;;4958092;28;19926;-85
2022/03/10 12:50:06;;;;;;;;;;;17.00;53.70;;;;;;4958477;28;19922;-85
2022/03/10 12:52:40;;;;;;;;;;;17.10;52.90;;;;;;4973428;28;20674;-84
2022/03/10 12:55:06;;;;;;;;;;;17.20;52.50;;;;;;4973270;28;19926;-85
2022/03/10 12:57:34;;;;;;;;;;;17.30;51.40;;;;;;4992338;28;19917;-85
2022/03/10 13:00:00;;;;;;;;;;;17.50;52.10;;;;;;4962957;28;20391;-85
2022/03/10 13:02:27;;;;;;;;;;;17.60;49.60;;;;;;4973474;28;19926;-85
2022/03/10 13:04:55;;;;;;;;;;;17.80;50.10;;;;;;4974475;28;19989;-85
2022/03/10 13:07:22;;;;;;;;;;;17.90;49.10;;;;;;4973360;28;19930;-85
2022/03/10 13:09:51;;;;;;;;;;;18.10;48.80;;;;;;4958273;28;20002;-84
2022/03/10 13:12:43;;;;;;;;;;;18.30;49.30;;;;;;4972673;28;20060;-84
2022/03/10 13:15:16;;;;;;;;;;;18.50;49.60;;;;;;4974873;28;20402;-84
2022/03/10 13:17:42;;;;;;;;;;;18.80;49.50;;;;;;4973543;28;19969;-84
2022/03/10 13:20:15;;;;;;;;;;;19.00;46.70;;;;;;4966007;28;19929;-90
2022/03/10 13:22:51;;;;;;;;;;;19.20;49.20;;;;;;4976493;28;19937;-83
2022/03/10 13:25:18;;;;;;;;;;;19.40;48.50;;;;;;4992146;28;19921;-84
2022/03/10 13:27:44;;;;;;;;;;;19.60;46.90;;;;;;4991689;28;19925;-84
2022/03/10 13:30:22;;;;;;;;;;;19.70;46.60;;;;;;4992065;28;20432;-83
2022/03/10 13:32:48;;;;;;;;;;;19.90;46.40;;;;;;4990041;28;19926;-84
2022/03/10 13:35:15;;;;;;;;;;;20.20;46.40;;;;;;4992209;28;19922;-83
2022/03/10 13:37:41;;;;;;;;;;;20.50;43.90;;;;;;4986774;28;20425;-84
2022/03/10 13:40:07;;;;;;;;;;;20.70;45.40;;;;;;4959206;28;19926;-83
2022/03/10 13:42:33;;;;;;;;;;;20.90;44.80;;;;;;4991608;28;20355;-83
2022/03/10 13:45:00;;;;;;;;;;;21.00;43.80;;;;;;4992504;28;19960;-83
2022/03/10 13:47:26;;;;;;;;;;;21.20;44.50;;;;;;4975795;28;19926;-83
2022/03/10 13:49:54;;;;;;;;;;;21.30;42.70;;;;;;4993195;28;20330;-83
2022/03/10 13:52:19;;;;;;;;;;;21.40;43.00;;;;;;4975911;28;19922;-83
2022/03/10 13:54:52;;;;;;;;;;;21.40;40.40;;;;;;4976095;28;19922;-83
2022/03/10 13:57:18;;;;;;;;;;;21.50;42.90;;;;;;5008005;28;20016;-84
2022/03/10 13:59:45;;;;;;;;;;;21.60;41.80;;;;;;4972455;28;19941;-81
2022/03/10 14:02:24;;;;;;;;;;;21.80;42.30;;;;;;4973185;28;20315;-84
2022/03/10 14:04:50;;;;;;;;;;;22.00;40.90;;;;;;4988016;28;19932;-83
2022/03/10 14:07:15;;;;;;;;;;;22.10;39.00;;;;;;4990138;28;20012;-84
2022/03/10 14:09:42;;;;;;;;;;;22.10;41.00;;;;;;4972309;28;19930;-84
2022/03/10 14:12:18;;;;;;;;;;;22.30;40.90;;;;;;4972310;28;19981;-84
2022/03/10 14:14:44;;;;;;;;;;;22.60;41.40;;;;;;4956303;28;19933;-84
2022/03/10 14:17:10;;;;;;;;;;;22.80;38.60;;;;;;4973719;28;19922;-84
2022/03/10 14:19:39;;;;;;;;;;;23.10;39.40;;;;;;4991248;28;19944;-84
2022/03/10 14:22:34;;;;;;;;;;;23.20;40.00;;;;;;4975467;28;19922;-84
2022/03/10 14:24:59;;;;;;;;;;;23.50;40.40;;;;;;4980411;28;19925;-83
2022/03/10 14:27:25;;;;;;;;;;;23.70;40.10;;;;;;4990690;28;19932;-84
2022/03/10 14:29:54;;;;;;;;;;;23.80;38.60;;;;;;4959581;28;19933;-84